Time;durP1;ratioP1;P1;durP2;ratioP2;P2;SDS_P1;SDS_P2;PMS_P1;PMS_P2;Temp;Humidity;BMP_temperature;BMP_pressure;BME280_temperature;BME280_humidity;BME280_pressure;Samples;Min_cycle;Max_cycle;Signal;HPM_P1;HPM_P2
2023/03/04 00:01:31;;;;;;;8.93;8.32;;;;;;;;;;5064146;28;20028;-47
2023/03/04 00:03:57;;;;;;;9.45;8.75;;;;;;;;;;5065520;28;20036;-47
2023/03/04 00:06:22;;;;;;;8.95;8.35;;;;;;;;;;5061557;28;20454;-49
2023/03/04 00:08:47;;;;;;;9.25;8.65;;;;;;;;;;5064377;28;20727;-47
2023/03/04 00:11:13;;;;;;;10.10;9.40;;;;;;;;;;5060847;28;20115;-49
2023/03/04 00:13:38;;;;;;;9.48;8.85;;;;;;;;;;5065446;28;20223;-48
2023/03/04 00:16:03;;;;;;;10.32;9.63;;;;;;;;;;5061416;28;20068;-49
2023/03/04 00:18:29;;;;;;;9.27;8.60;;;;;;;;;;5063121;28;20029;-51
2023/03/04 00:20:54;;;;;;;9.98;9.25;;;;;;;;;;5061307;28;20043;-49
2023/03/04 00:23:20;;;;;;;9.95;9.25;;;;;;;;;;5060632;28;20387;-48
2023/03/04 00:25:45;;;;;;;9.18;8.57;;;;;;;;;;5061480;28;20548;-48
2023/03/04 00:28:10;;;;;;;8.85;8.20;;;;;;;;;;5063194;28;20783;-52
2023/03/04 00:30:36;;;;;;;8.82;8.23;;;;;;;;;;5062918;28;20062;-51
2023/03/04 00:33:01;;;;;;;9.60;8.88;;;;;;;;;;5062110;28;20533;-47
2023/03/04 00:35:26;;;;;;;9.40;8.70;;;;;;;;;;5060762;28;20029;-49
2023/03/04 00:37:52;;;;;;;8.80;8.20;;;;;;;;;;5063916;28;20656;-47
2023/03/04 00:40:17;;;;;;;9.57;8.88;;;;;;;;;;5061888;28;20036;-48
2023/03/04 00:42:43;;;;;;;9.35;8.75;;;;;;;;;;5060296;28;20500;-52
2023/03/04 00:45:08;;;;;;;8.88;8.25;;;;;;;;;;5062696;28;20036;-52
2023/03/04 00:47:34;;;;;;;8.70;8.10;;;;;;;;;;5062389;28;20575;-50
2023/03/04 00:50:00;;;;;;;11.00;10.20;;;;;;;;;;5057948;28;20061;-48
2023/03/04 00:52:25;;;;;;;9.35;8.75;;;;;;;;;;5061077;28;20462;-48
2023/03/04 00:54:50;;;;;;;8.75;8.15;;;;;;;;;;5061251;28;20040;-47
2023/03/04 00:57:16;;;;;;;9.57;8.85;;;;;;;;;;5060316;28;20067;-49
2023/03/04 00:59:42;;;;;;;9.68;8.98;;;;;;;;;;5059892;28;20025;-48
2023/03/04 01:02:08;;;;;;;9.50;8.90;;;;;;;;;;5062310;28;20055;-47
2023/03/04 01:04:34;;;;;;;8.48;7.97;;;;;;;;;;5063278;28;20033;-47
2023/03/04 01:06:59;;;;;;;9.55;8.95;;;;;;;;;;5062398;28;20063;-48
2023/03/04 01:09:25;;;;;;;9.18;8.43;;;;;;;;;;5059704;28;20040;-50
2023/03/04 01:11:51;;;;;;;9.85;9.05;;;;;;;;;;5061879;28;20032;-48
2023/03/04 01:14:17;;;;;;;10.15;9.35;;;;;;;;;;5059519;28;20037;-47
2023/03/04 01:16:42;;;;;;;9.38;8.68;;;;;;;;;;5062099;28;20460;-47
2023/03/04 01:19:08;;;;;;;9.25;8.65;;;;;;;;;;5060595;28;20039;-49
2023/03/04 01:21:33;;;;;;;9.48;8.77;;;;;;;;;;5061418;28;20029;-49
2023/03/04 01:23:58;;;;;;;9.70;9.00;;;;;;;;;;5062757;28;20090;-50
2023/03/04 01:26:24;;;;;;;9.73;9.02;;;;;;;;;;5061752;28;20101;-49
2023/03/04 01:28:49;;;;;;;8.43;7.82;;;;;;;;;;5063435;28;20066;-48
2023/03/04 01:31:14;;;;;;;9.70;9.00;;;;;;;;;;5063557;28;20696;-48
2023/03/04 01:33:40;;;;;;;9.35;8.65;;;;;;;;;;5060334;28;20052;-50
2023/03/04 01:36:05;;;;;;;9.50;8.90;;;;;;;;;;5062567;28;20107;-47
2023/03/04 01:38:31;;;;;;;8.63;8.07;;;;;;;;;;5063835;28;20047;-47
2023/03/04 01:40:56;;;;;;;9.32;8.73;;;;;;;;;;5064201;28;20047;-50
2023/03/04 01:43:25;;;;;;;9.27;8.63;;;;;;;;;;5061379;28;20611;-51
2023/03/04 01:45:51;;;;;;;9.90;9.15;;;;;;;;;;5061865;28;20047;-48
2023/03/04 01:48:25;;;;;;;10.23;9.35;;;;;;;;;;5059583;28;20032;-47
2023/03/04 01:50:50;;;;;;;8.50;7.95;;;;;;;;;;5061033;28;20103;-51
2023/03/04 01:53:24;;;;;;;13.52;9.43;;;;;;;;;;5059628;28;20124;-48
2023/03/04 01:55:53;;;;;;;8.50;7.90;;;;;;;;;;5075930;28;20029;-48
2023/03/04 01:58:18;;;;;;;8.60;8.07;;;;;;;;;;5060337;28;20362;-49
2023/03/04 02:00:44;;;;;;;8.73;8.13;;;;;;;;;;5062020;28;20044;-50
2023/03/04 02:03:14;;;;;;;8.82;8.23;;;;;;;;;;5061788;28;20056;-49
2023/03/04 02:05:42;;;;;;;10.88;9.95;;;;;;;;;;5055137;28;20040;-51
2023/03/04 02:08:09;;;;;;;9.98;9.15;;;;;;;;;;5062514;28;20040;-50
2023/03/04 02:10:35;;;;;;;10.40;9.52;;;;;;;;;;5062935;28;20033;-49
2023/03/04 02:13:00;;;;;;;10.75;10.05;;;;;;;;;;5062998;28;20413;-51
2023/03/04 02:15:27;;;;;;;11.45;10.43;;;;;;;;;;5063220;28;20354;-48
2023/03/04 02:17:52;;;;;;;9.93;9.23;;;;;;;;;;5062240;28;20040;-49
2023/03/04 02:20:40;;;;;;;11.00;10.13;;;;;;;;;;5062846;28;20093;-47
2023/03/04 02:23:39;;;;;;;11.82;10.95;;;;;;;;;;5065793;28;20533;-47
2023/03/04 02:26:17;;;;;;;14.60;12.25;;;;;;;;;;5064557;28;20033;-48
2023/03/04 02:28:44;;;;;;;12.90;9.80;;;;;;;;;;5064781;28;20032;-49
2023/03/04 02:31:22;;;;;;;12.40;11.50;;;;;;;;;;5067348;28;20021;-48
2023/03/04 02:33:48;;;;;;;12.73;10.90;;;;;;;;;;5063757;28;20104;-49
2023/03/04 02:36:14;;;;;;;10.77;10.07;;;;;;;;;;5064954;28;20033;-49
2023/03/04 02:38:39;;;;;;;11.60;10.80;;;;;;;;;;5065880;28;20489;-47
2023/03/04 02:41:08;;;;;;;11.25;10.27;;;;;;;;;;5066288;28;20033;-46
2023/03/04 02:43:33;;;;;;;10.85;10.15;;;;;;;;;;5064819;28;20064;-50
2023/03/04 02:45:58;;;;;;;13.45;12.00;;;;;;;;;;5065560;28;20400;-46
2023/03/04 02:48:24;;;;;;;10.63;9.93;;;;;;;;;;5065245;28;20118;-47
2023/03/04 02:50:52;;;;;;;11.73;10.70;;;;;;;;;;5065125;28;20028;-47
2023/03/04 02:53:19;;;;;;;12.05;11.25;;;;;;;;;;5064445;28;20033;-47
2023/03/04 02:55:45;;;;;;;11.38;10.68;;;;;;;;;;5081548;28;20035;-47
2023/03/04 02:58:11;;;;;;;12.35;11.38;;;;;;;;;;5062573;28;20123;-49
2023/03/04 03:00:37;;;;;;;12.63;11.52;;;;;;;;;;5065017;28;20133;-46
2023/03/04 03:03:02;;;;;;;11.77;11.00;;;;;;;;;;5065029;28;20102;-48
2023/03/04 03:05:30;;;;;;;11.93;11.02;;;;;;;;;;5065870;28;20040;-49
2023/03/04 03:07:56;;;;;;;13.00;11.70;;;;;;;;;;5063770;28;20028;-46
2023/03/04 03:10:22;;;;;;;11.65;10.80;;;;;;;;;;5064095;28;20032;-49
2023/03/04 03:12:47;;;;;;;12.70;11.63;;;;;;;;;;5066175;28;20544;-50
2023/03/04 03:15:13;;;;;;;12.07;11.15;;;;;;;;;;5065111;28;20070;-49
2023/03/04 03:17:39;;;;;;;10.90;10.10;;;;;;;;;;5064591;28;20486;-47
2023/03/04 03:20:06;;;;;;;11.70;10.77;;;;;;;;;;5064763;28;20497;-47
2023/03/04 03:22:31;;;;;;;11.20;10.45;;;;;;;;;;5065735;28;20502;-48
2023/03/04 03:24:57;;;;;;;12.00;11.20;;;;;;;;;;5066029;28;20145;-49
2023/03/04 03:27:22;;;;;;;14.07;12.60;;;;;;;;;;5062805;28;20043;-47
2023/03/04 03:29:47;;;;;;;12.75;11.75;;;;;;;;;;5065053;28;20379;-48
2023/03/04 03:32:13;;;;;;;14.48;13.02;;;;;;;;;;5064407;28;20105;-48
2023/03/04 03:34:38;;;;;;;11.70;10.80;;;;;;;;;;5059246;28;20098;-48
2023/03/04 03:37:03;;;;;;;11.30;10.40;;;;;;;;;;5065253;28;20040;-46
2023/03/04 03:39:29;;;;;;;12.32;11.30;;;;;;;;;;5061933;28;20039;-46
2023/03/04 03:41:54;;;;;;;12.32;11.20;;;;;;;;;;5062410;28;20040;-48
2023/03/04 03:44:20;;;;;;;12.43;11.52;;;;;;;;;;5064101;28;20036;-46
2023/03/04 03:46:46;;;;;;;15.30;11.48;;;;;;;;;;5063351;28;20173;-50
2023/03/04 03:49:11;;;;;;;11.90;11.07;;;;;;;;;;5063434;28;20374;-48
2023/03/04 03:51:36;;;;;;;9.80;9.18;;;;;;;;;;5062315;28;20025;-48
2023/03/04 03:54:02;;;;;;;11.73;10.82;;;;;;;;;;5062600;28;20810;-47
2023/03/04 03:56:27;;;;;;;10.73;10.02;;;;;;;;;;5060940;28;20129;-47
2023/03/04 03:58:52;;;;;;;10.43;9.48;;;;;;;;;;5063719;28;20068;-50
2023/03/04 04:01:18;;;;;;;10.50;9.75;;;;;;;;;;5064077;28;20036;-47
2023/03/04 04:03:43;;;;;;;12.00;11.20;;;;;;;;;;5062823;28;20040;-51
2023/03/04 04:06:08;;;;;;;11.20;10.38;;;;;;;;;;5062468;28;20032;-50
2023/03/04 04:08:34;;;;;;;10.88;10.05;;;;;;;;;;5063336;28;20040;-50
2023/03/04 04:10:59;;;;;;;11.15;10.43;;;;;;;;;;5062470;28;20024;-49
2023/03/04 04:13:24;;;;;;;14.45;12.52;;;;;;;;;;5061350;28;20043;-49
2023/03/04 04:15:51;;;;;;;13.50;12.45;;;;;;;;;;5063265;28;20111;-49
2023/03/04 04:18:16;;;;;;;13.30;12.23;;;;;;;;;;5061803;28;20048;-48
2023/03/04 04:20:41;;;;;;;13.40;10.75;;;;;;;;;;5062129;28;20528;-49
2023/03/04 04:23:07;;;;;;;12.52;11.32;;;;;;;;;;5061667;28;20393;-47
2023/03/04 04:25:32;;;;;;;11.65;10.75;;;;;;;;;;5060325;28;20028;-49
2023/03/04 04:27:58;;;;;;;11.60;10.55;;;;;;;;;;5063443;28;20524;-51
2023/03/04 04:30:24;;;;;;;28.38;11.73;;;;;;;;;;5063460;28;20028;-50
2023/03/04 04:32:49;;;;;;;10.98;10.10;;;;;;;;;;5062547;28;20044;-49
2023/03/04 04:35:14;;;;;;;15.30;12.50;;;;;;;;;;5061365;28;20040;-48
2023/03/04 04:37:40;;;;;;;13.13;11.90;;;;;;;;;;5061804;28;20537;-51
2023/03/04 04:40:06;;;;;;;11.68;10.75;;;;;;;;;;5063045;28;20688;-48
2023/03/04 04:42:31;;;;;;;11.82;10.90;;;;;;;;;;5059873;28;20037;-47
2023/03/04 04:44:57;;;;;;;11.82;11.02;;;;;;;;;;5062699;28;20161;-51
2023/03/04 04:47:22;;;;;;;12.82;11.75;;;;;;;;;;5061233;28;20107;-48
2023/03/04 04:49:47;;;;;;;12.63;11.55;;;;;;;;;;5063000;28;20089;-48
2023/03/04 04:52:13;;;;;;;14.98;10.98;;;;;;;;;;5062180;28;20043;-50
2023/03/04 04:54:38;;;;;;;14.45;11.13;;;;;;;;;;5060933;28;20067;-46
2023/03/04 04:57:03;;;;;;;11.98;10.88;;;;;;;;;;5060174;28;20039;-46
2023/03/04 04:59:29;;;;;;;11.98;10.80;;;;;;;;;;5061781;28;20855;-51
2023/03/04 05:01:54;;;;;;;12.77;11.52;;;;;;;;;;5060143;28;20047;-48
2023/03/04 05:04:19;;;;;;;12.98;11.88;;;;;;;;;;5062999;28;20041;-46
2023/03/04 05:06:45;;;;;;;11.90;11.00;;;;;;;;;;5062463;28;20093;-49
2023/03/04 05:09:11;;;;;;;11.30;10.05;;;;;;;;;;5060513;28;20666;-48
2023/03/04 05:11:36;;;;;;;12.57;11.57;;;;;;;;;;5060123;28;20059;-48
2023/03/04 05:14:02;;;;;;;12.70;11.73;;;;;;;;;;5059742;28;20060;-47
2023/03/04 05:16:27;;;;;;;10.80;10.05;;;;;;;;;;5061249;28;20097;-47
2023/03/04 05:18:52;;;;;;;12.00;11.07;;;;;;;;;;5058941;28;20158;-47
2023/03/04 05:21:18;;;;;;;12.45;11.35;;;;;;;;;;5063872;28;20036;-48
2023/03/04 05:23:43;;;;;;;12.25;11.13;;;;;;;;;;5061940;28;20037;-50
2023/03/04 05:26:13;;;;;;;13.88;12.65;;;;;;;;;;5062983;28;20033;-50
2023/03/04 05:28:38;;;;;;;15.07;13.82;;;;;;;;;;5061605;28;20166;-48
2023/03/04 05:31:04;;;;;;;13.80;12.70;;;;;;;;;;5064278;28;20058;-50
2023/03/04 05:33:30;;;;;;;12.57;11.48;;;;;;;;;;5060214;28;20568;-49
2023/03/04 05:35:56;;;;;;;12.52;11.55;;;;;;;;;;5062548;28;20039;-50
2023/03/04 05:38:22;;;;;;;11.93;10.82;;;;;;;;;;5062275;28;20399;-47
2023/03/04 05:40:48;;;;;;;13.40;12.50;;;;;;;;;;5063560;28;20029;-52
2023/03/04 05:43:14;;;;;;;11.85;10.88;;;;;;;;;;5062736;28;20627;-50
2023/03/04 05:45:39;;;;;;;13.80;12.48;;;;;;;;;;5061159;28;20032;-50
2023/03/04 05:48:05;;;;;;;11.15;10.45;;;;;;;;;;5057657;28;20020;-51
2023/03/04 05:50:31;;;;;;;12.63;11.63;;;;;;;;;;5060169;28;20421;-52
2023/03/04 05:52:57;;;;;;;14.20;12.93;;;;;;;;;;5059943;28;20039;-53
2023/03/04 05:55:22;;;;;;;14.55;11.38;;;;;;;;;;5057255;28;20407;-49
2023/03/04 05:57:47;;;;;;;11.90;11.00;;;;;;;;;;5058130;28;20039;-52
2023/03/04 06:00:14;;;;;;;12.30;11.27;;;;;;;;;;5060823;28;20061;-50
2023/03/04 06:02:40;;;;;;;13.10;12.13;;;;;;;;;;5058338;28;20044;-51
2023/03/04 06:05:07;;;;;;;10.68;9.82;;;;;;;;;;5061500;28;20098;-48
2023/03/04 06:07:32;;;;;;;13.48;12.23;;;;;;;;;;5057334;28;20123;-49
2023/03/04 06:09:58;;;;;;;13.18;11.93;;;;;;;;;;5059586;28;20111;-47
2023/03/04 06:12:23;;;;;;;13.00;12.10;;;;;;;;;;5058257;28;20055;-50
2023/03/04 06:14:49;;;;;;;16.08;14.65;;;;;;;;;;5060347;28;20207;-48
2023/03/04 06:17:14;;;;;;;11.88;10.98;;;;;;;;;;5061957;28;20041;-49
2023/03/04 06:19:42;;;;;;;12.65;11.75;;;;;;;;;;5057930;28;20174;-48
2023/03/04 06:22:08;;;;;;;12.95;11.65;;;;;;;;;;5059239;28;20067;-50
2023/03/04 06:24:34;;;;;;;15.82;12.63;;;;;;;;;;5061262;28;20044;-51
2023/03/04 06:26:59;;;;;;;13.05;11.90;;;;;;;;;;5059201;28;20097;-49
2023/03/04 06:29:25;;;;;;;11.88;10.77;;;;;;;;;;5057261;28;20036;-51
2023/03/04 06:31:50;;;;;;;12.40;11.40;;;;;;;;;;5059328;28;20031;-48
2023/03/04 06:34:16;;;;;;;15.00;13.70;;;;;;;;;;5062952;28;20051;-53
2023/03/04 06:36:41;;;;;;;13.45;12.15;;;;;;;;;;5062239;28;20033;-52
2023/03/04 06:39:07;;;;;;;12.45;11.55;;;;;;;;;;5060978;28;20032;-52
2023/03/04 06:41:33;;;;;;;20.55;12.43;;;;;;;;;;5061042;28;20063;-49
2023/03/04 06:43:58;;;;;;;14.65;13.15;;;;;;;;;;5057385;28;20438;-49
2023/03/04 06:46:23;;;;;;;11.80;10.90;;;;;;;;;;5061285;28;20055;-51
2023/03/04 06:48:49;;;;;;;12.60;11.50;;;;;;;;;;5061494;28;20039;-49
2023/03/04 06:51:15;;;;;;;13.10;11.98;;;;;;;;;;5062147;28;20186;-48
2023/03/04 06:53:40;;;;;;;12.80;11.82;;;;;;;;;;5058215;28;20131;-47
2023/03/04 06:56:07;;;;;;;14.23;12.98;;;;;;;;;;5059753;28;20032;-50
2023/03/04 06:58:32;;;;;;;13.65;12.55;;;;;;;;;;5058400;28;20469;-50
2023/03/04 07:01:09;;;;;;;13.02;12.02;;;;;;;;;;5060105;28;20039;-53
2023/03/04 07:03:35;;;;;;;14.07;12.68;;;;;;;;;;5058791;28;20044;-47
2023/03/04 07:06:00;;;;;;;12.80;11.63;;;;;;;;;;5060099;28;20055;-49
2023/03/04 07:08:25;;;;;;;12.75;11.85;;;;;;;;;;5063643;28;20047;-52
2023/03/04 07:10:50;;;;;;;13.27;12.38;;;;;;;;;;5064320;28;20063;-49
2023/03/04 07:13:16;;;;;;;12.90;11.95;;;;;;;;;;5064754;28;20627;-51
2023/03/04 07:15:41;;;;;;;12.05;11.05;;;;;;;;;;5065102;28;20044;-48
2023/03/04 07:18:06;;;;;;;22.38;14.55;;;;;;;;;;5064367;28;20024;-49
2023/03/04 07:20:32;;;;;;;26.00;14.60;;;;;;;;;;5061796;28;20039;-51
2023/03/04 07:22:57;;;;;;;13.75;12.75;;;;;;;;;;5064649;28;20041;-50
2023/03/04 07:25:23;;;;;;;15.90;13.07;;;;;;;;;;5064452;28;20092;-51
2023/03/04 07:27:48;;;;;;;13.93;12.77;;;;;;;;;;5061249;28;20128;-50
2023/03/04 07:30:13;;;;;;;14.35;13.18;;;;;;;;;;5063174;28;20044;-48
2023/03/04 07:32:39;;;;;;;15.45;14.10;;;;;;;;;;5063743;28;20043;-49
2023/03/04 07:35:05;;;;;;;14.65;13.48;;;;;;;;;;5076225;28;20682;-49
2023/03/04 07:37:30;;;;;;;14.95;13.57;;;;;;;;;;5062869;28;20037;-50
2023/03/04 07:39:55;;;;;;;14.02;12.93;;;;;;;;;;5063638;28;20166;-48
2023/03/04 07:42:21;;;;;;;13.98;12.90;;;;;;;;;;5062940;28;20232;-49
2023/03/04 07:44:46;;;;;;;14.18;12.98;;;;;;;;;;5062862;28;20063;-48
2023/03/04 07:47:12;;;;;;;13.25;12.07;;;;;;;;;;5064968;28;20039;-46
2023/03/04 07:49:37;;;;;;;12.82;11.82;;;;;;;;;;5061700;28;20743;-47
2023/03/04 07:52:04;;;;;;;15.65;13.23;;;;;;;;;;5063755;28;20043;-48
2023/03/04 07:54:29;;;;;;;15.80;14.60;;;;;;;;;;5062282;28;20077;-47
2023/03/04 07:56:55;;;;;;;14.43;13.18;;;;;;;;;;5063951;28;20036;-46
2023/03/04 07:59:20;;;;;;;14.23;13.18;;;;;;;;;;5063859;28;20033;-47
2023/03/04 08:01:45;;;;;;;13.00;12.07;;;;;;;;;;5062921;28;20036;-47
2023/03/04 08:04:11;;;;;;;17.05;14.30;;;;;;;;;;5063458;28;20037;-46
2023/03/04 08:06:39;;;;;;;14.05;12.95;;;;;;;;;;5061828;28;20047;-47
2023/03/04 08:09:06;;;;;;;13.15;12.05;;;;;;;;;;5061983;28;20036;-49
2023/03/04 08:11:34;;;;;;;14.25;12.80;;;;;;;;;;5063294;28;20021;-47
2023/03/04 08:13:59;;;;;;;13.25;12.25;;;;;;;;;;5063174;28;20424;-46
2023/03/04 08:16:25;;;;;;;13.23;12.23;;;;;;;;;;5061402;28;20040;-46
2023/03/04 08:18:54;;;;;;;15.68;14.45;;;;;;;;;;5059032;28;20268;-47
2023/03/04 08:21:21;;;;;;;13.40;12.48;;;;;;;;;;5063654;28;20032;-48
2023/03/04 08:23:47;;;;;;;13.02;12.02;;;;;;;;;;5063193;28;20102;-47
2023/03/04 08:26:34;;;;;;;23.33;13.10;;;;;;;;;;5062918;28;20044;-50
2023/03/04 08:29:02;;;;;;;16.25;14.65;;;;;;;;;;5060857;28;20033;-48
2023/03/04 08:31:27;;;;;;;14.82;13.70;;;;;;;;;;5060231;28;20378;-47
2023/03/04 08:33:53;;;;;;;14.48;13.27;;;;;;;;;;5061976;28;20093;-47
2023/03/04 08:36:19;;;;;;;15.15;14.05;;;;;;;;;;5061989;28;20429;-48
2023/03/04 08:38:44;;;;;;;15.13;13.93;;;;;;;;;;5060252;28;20037;-50
2023/03/04 08:41:10;;;;;;;13.65;12.57;;;;;;;;;;5060460;28;20037;-47
2023/03/04 08:43:35;;;;;;;14.43;13.32;;;;;;;;;;5060859;28;20025;-49
2023/03/04 08:46:01;;;;;;;13.95;12.95;;;;;;;;;;5062390;28;20032;-48
2023/03/04 08:48:27;;;;;;;15.35;14.18;;;;;;;;;;5060864;28;20111;-48
2023/03/04 08:50:52;;;;;;;16.45;15.15;;;;;;;;;;5059072;28;20045;-48
2023/03/04 08:53:19;;;;;;;18.13;16.65;;;;;;;;;;5053144;28;20040;-48
2023/03/04 08:55:45;;;;;;;16.30;15.18;;;;;;;;;;5060435;28;20048;-48
2023/03/04 08:58:11;;;;;;;18.15;16.80;;;;;;;;;;5061625;28;20721;-49
2023/03/04 09:00:41;;;;;;;17.77;16.35;;;;;;;;;;5060594;28;20467;-52
2023/03/04 09:03:07;;;;;;;16.63;15.50;;;;;;;;;;5059199;28;20033;-53
2023/03/04 09:05:33;;;;;;;15.15;13.98;;;;;;;;;;5062823;28;20109;-52
2023/03/04 09:07:59;;;;;;;17.45;15.88;;;;;;;;;;5063452;28;20033;-52
2023/03/04 09:10:24;;;;;;;16.83;15.57;;;;;;;;;;5063845;28;20056;-55
2023/03/04 09:12:50;;;;;;;15.23;14.15;;;;;;;;;;5061495;28;20158;-50
2023/03/04 09:15:16;;;;;;;17.05;15.85;;;;;;;;;;5063200;28;20105;-54
2023/03/04 09:17:41;;;;;;;15.73;14.48;;;;;;;;;;5057076;28;20029;-54
2023/03/04 09:20:09;;;;;;;15.60;14.48;;;;;;;;;;5061821;28;20039;-55
2023/03/04 09:22:37;;;;;;;16.25;14.73;;;;;;;;;;5060931;28;20036;-52
2023/03/04 09:25:02;;;;;;;15.05;13.50;;;;;;;;;;5059915;28;20028;-54
2023/03/04 09:27:28;;;;;;;13.00;12.10;;;;;;;;;;5060088;28;20449;-54
2023/03/04 09:29:53;;;;;;;14.07;13.10;;;;;;;;;;5057950;28;20060;-55
2023/03/04 09:32:19;;;;;;;14.63;13.63;;;;;;;;;;5060694;28;20068;-54
2023/03/04 09:34:44;;;;;;;15.45;14.35;;;;;;;;;;5059776;28;20049;-55
2023/03/04 09:37:09;;;;;;;14.18;13.18;;;;;;;;;;5062124;28;20021;-50
2023/03/04 09:39:35;;;;;;;14.50;13.50;;;;;;;;;;5059004;28;20029;-57
2023/03/04 09:42:03;;;;;;;14.82;13.82;;;;;;;;;;5059799;28;20043;-50
2023/03/04 09:44:31;;;;;;;16.15;14.63;;;;;;;;;;5061751;28;20071;-57
2023/03/04 09:47:00;;;;;;;14.52;13.50;;;;;;;;;;5060616;28;20032;-51
2023/03/04 09:49:26;;;;;;;15.55;14.38;;;;;;;;;;5062017;28;20724;-52
2023/03/04 09:52:22;;;;;;;14.23;13.15;;;;;;;;;;5061985;28;20039;-54
2023/03/04 09:55:11;;;;;;;15.50;14.45;;;;;;;;;;5075033;28;20031;-57
2023/03/04 09:57:40;;;;;;;15.38;14.27;;;;;;;;;;5059116;28;20365;-59
2023/03/04 10:00:18;;;;;;;19.42;16.30;;;;;;;;;;5063879;28;20530;-54
2023/03/04 10:03:11;;;;;;;15.45;14.38;;;;;;;;;;5059399;28;20047;-51
2023/03/04 10:05:48;;;;;;;15.18;13.77;;;;;;;;;;5059374;28;20032;-57
2023/03/04 10:08:35;;;;;;;14.60;13.50;;;;;;;;;;5061017;28;20408;-54
2023/03/04 10:11:04;;;;;;;15.68;14.57;;;;;;;;;;5061436;28;20040;-54
2023/03/04 10:13:39;;;;;;;14.40;13.15;;;;;;;;;;5057854;28;20606;-54
2023/03/04 10:16:08;;;;;;;13.82;12.93;;;;;;;;;;5057970;28;20619;-57
2023/03/04 10:18:39;;;;;;;13.27;12.27;;;;;;;;;;5060388;28;20033;-56
2023/03/04 10:21:07;;;;;;;13.45;12.45;;;;;;;;;;5061539;28;20029;-57
2023/03/04 10:23:36;;;;;;;14.88;13.65;;;;;;;;;;5061780;28;20040;-53
2023/03/04 10:26:12;;;;;;;12.18;11.38;;;;;;;;;;5060298;28;20039;-53
2023/03/04 10:28:38;;;;;;;13.52;12.57;;;;;;;;;;5062069;28;20814;-51
2023/03/04 10:31:31;;;;;;;13.63;12.43;;;;;;;;;;5062883;28;20025;-50
2023/03/04 10:33:57;;;;;;;12.05;11.15;;;;;;;;;;5061686;28;20413;-53
2023/03/04 10:36:28;;;;;;;12.90;11.90;;;;;;;;;;5062051;28;20043;-53
2023/03/04 10:39:09;;;;;;;11.82;11.10;;;;;;;;;;5061979;28;20036;-54
2023/03/04 10:41:34;;;;;;;12.32;11.43;;;;;;;;;;5057747;28;20036;-55
2023/03/04 10:44:08;;;;;;;11.90;11.10;;;;;;;;;;5065383;28;20466;-55
2023/03/04 10:46:41;;;;;;;11.27;10.50;;;;;;;;;;5062786;28;20063;-54
2023/03/04 10:49:09;;;;;;;11.68;10.90;;;;;;;;;;5067425;28;20044;-54
2023/03/04 10:52:04;;;;;;;11.82;11.02;;;;;;;;;;5064227;28;20032;-54
2023/03/04 10:54:45;;;;;;;11.35;10.45;;;;;;;;;;5064037;28;20036;-54
2023/03/04 10:57:17;;;;;;;12.05;11.15;;;;;;;;;;5063266;28;20044;-51
2023/03/04 10:59:42;;;;;;;;;;;;;;;;;;5065453;28;20029;-52
2023/03/04 11:02:18;;;;;;;11.90;11.00;;;;;;;;;;5066433;28;19927;-51
2023/03/04 11:05:08;;;;;;;10.90;10.15;;;;;;;;;;5065642;28;20103;-51
2023/03/04 11:07:59;;;;;;;13.13;11.88;;;;;;;;;;5052402;28;20048;-51
2023/03/04 11:10:39;;;;;;;12.15;11.30;;;;;;;;;;5065513;28;20037;-49
2023/03/04 11:13:10;;;;;;;11.32;10.52;;;;;;;;;;5065667;28;20037;-49
2023/03/04 11:15:52;;;;;;;10.60;9.73;;;;;;;;;;5062337;28;20032;-53
2023/03/04 11:18:29;;;;;;;9.82;9.23;;;;;;;;;;5063778;28;20405;-49
2023/03/04 11:20:56;;;;;;;10.50;9.80;;;;;;;;;;5063534;28;20028;-49
2023/03/04 11:23:46;;;;;;;10.07;9.48;;;;;;;;;;5064437;28;20041;-53
2023/03/04 11:26:20;;;;;;;11.27;10.57;;;;;;;;;;5062216;28;20131;-53
2023/03/04 11:28:52;;;;;;;11.00;10.30;;;;;;;;;;5062461;28;20024;-53
2023/03/04 11:32:00;;;;;;;11.75;10.95;;;;;;;;;;5064420;28;20025;-50
2023/03/04 11:34:41;;;;;;;9.85;9.25;;;;;;;;;;5001246;28;20076;-56
2023/03/04 11:37:24;;;;;;;10.43;9.73;;;;;;;;;;5064745;28;20029;-52
2023/03/04 11:40:09;;;;;;;9.77;9.18;;;;;;;;;;5061791;28;20044;-51
2023/03/04 11:42:44;;;;;;;10.15;9.55;;;;;;;;;;5059120;28;20059;-49
2023/03/04 11:45:12;;;;;;;10.57;9.77;;;;;;;;;;5062289;28;20102;-50
2023/03/04 11:47:44;;;;;;;12.15;11.35;;;;;;;;;;5061975;28;20656;-53
2023/03/04 11:50:27;;;;;;;10.20;9.57;;;;;;;;;;5064539;28;20033;-50
2023/03/04 11:53:30;;;;;;;10.65;9.75;;;;;;;;;;5063290;28;20469;-51
2023/03/04 11:56:12;;;;;;;12.27;11.38;;;;;;;;;;5063532;28;20033;-53
2023/03/04 11:59:04;;;;;;;11.73;11.00;;;;;;;;;;5079282;28;20261;-52
2023/03/04 12:01:38;;;;;;;9.95;9.35;;;;;;;;;;5065509;28;20106;-55
2023/03/04 12:04:12;;;;;;;10.73;9.95;;;;;;;;;;5061268;28;20049;-54
2023/03/04 12:06:50;;;;;;;10.55;9.77;;;;;;;;;;5063235;28;20060;-54
2023/03/04 12:09:45;;;;;;;10.93;10.23;;;;;;;;;;5062151;28;20626;-55
2023/03/04 12:12:37;;;;;;;10.15;9.55;;;;;;;;;;5061656;28;20033;-52
2023/03/04 12:15:31;;;;;;;13.95;10.70;;;;;;;;;;5064723;28;20063;-56
2023/03/04 12:18:23;;;;;;;11.43;10.65;;;;;;;;;;5063573;28;20025;-53
2023/03/04 12:21:19;;;;;;;11.13;10.43;;;;;;;;;;5063032;28;20681;-54
2023/03/04 12:23:56;;;;;;;10.90;9.98;;;;;;;;;;5062939;28;20063;-55
2023/03/04 12:26:49;;;;;;;9.75;9.15;;;;;;;;;;5063702;28;20074;-55
2023/03/04 12:29:21;;;;;;;10.75;9.90;;;;;;;;;;5065312;28;20468;-54
2023/03/04 12:31:53;;;;;;;12.80;11.88;;;;;;;;;;5060533;28;20085;-54
2023/03/04 12:34:52;;;;;;;10.75;10.05;;;;;;;;;;5060737;28;20040;-57
2023/03/04 12:37:46;;;;;;;10.32;9.65;;;;;;;;;;5064442;28;20032;-54
2023/03/04 12:40:31;;;;;;;9.48;8.88;;;;;;;;;;5065813;28;20036;-56
2023/03/04 12:43:22;;;;;;;9.77;9.18;;;;;;;;;;5062996;28;20146;-54
2023/03/04 12:46:17;;;;;;;11.38;10.32;;;;;;;;;;5061779;28;20111;-56
2023/03/04 12:48:59;;;;;;;10.52;9.82;;;;;;;;;;5061000;28;20058;-57
2023/03/04 12:51:34;;;;;;;9.93;9.32;;;;;;;;;;5062716;28;20111;-55
2023/03/04 12:54:12;;;;;;;10.68;10.00;;;;;;;;;;5062342;28;20036;-54
2023/03/04 12:56:42;;;;;;;11.38;10.48;;;;;;;;;;5061826;28;20040;-54
2023/03/04 12:59:19;;;;;;;11.07;10.32;;;;;;;;;;5064382;28;20685;-55
2023/03/04 13:01:50;;;;;;;10.10;9.27;;;;;;;;;;5062276;28;20043;-54
2023/03/04 13:04:20;;;;;;;9.48;8.88;;;;;;;;;;5063182;28;20037;-51
2023/03/04 13:07:06;;;;;;;10.38;9.77;;;;;;;;;;5060420;28;20039;-52
2023/03/04 13:09:42;;;;;;;10.00;9.40;;;;;;;;;;5061725;28;20048;-50
2023/03/04 13:12:18;;;;;;;10.00;9.40;;;;;;;;;;5062501;28;20032;-55
2023/03/04 13:15:06;;;;;;;9.73;9.13;;;;;;;;;;5061147;28;20421;-54
2023/03/04 13:17:42;;;;;;;9.80;9.13;;;;;;;;;;5054912;28;20484;-58
2023/03/04 13:20:23;;;;;;;10.45;9.75;;;;;;;;;;5062191;28;20086;-52
2023/03/04 13:23:07;;;;;;;10.68;9.95;;;;;;;;;;5056583;28;20079;-53
2023/03/04 13:25:48;;;;;;;11.27;10.55;;;;;;;;;;5060289;28;20180;-50
2023/03/04 13:28:20;;;;;;;9.80;9.20;;;;;;;;;;5059444;28;20150;-50
2023/03/04 13:30:54;;;;;;;10.90;10.20;;;;;;;;;;5062282;28;20029;-51
2023/03/04 13:33:22;;;;;;;11.60;10.90;;;;;;;;;;5058966;28;20529;-52
2023/03/04 13:36:00;;;;;;;11.05;10.25;;;;;;;;;;5060112;28;20371;-52
2023/03/04 13:38:25;;;;;;;10.95;10.25;;;;;;;;;;5062939;28;20028;-51
2023/03/04 13:41:30;;;;;;;10.48;9.80;;;;;;;;;;5059513;28;20028;-52
2023/03/04 13:44:01;;;;;;;10.55;9.95;;;;;;;;;;5071642;28;20044;-50
2023/03/04 13:46:26;;;;;;;11.77;11.07;;;;;;;;;;5060671;28;20107;-52
2023/03/04 13:48:55;;;;;;;11.18;10.27;;;;;;;;;;5060073;28;20120;-48
2023/03/04 13:51:36;;;;;;;11.10;10.30;;;;;;;;;;5061681;28;20028;-53
2023/03/04 13:54:04;;;;;;;10.50;9.85;;;;;;;;;;5061938;28;20035;-51
2023/03/04 13:56:45;;;;;;;11.48;10.68;;;;;;;;;;5062474;28;20143;-51
2023/03/04 13:59:25;;;;;;;10.80;10.10;;;;;;;;;;5061492;28;20037;-55
2023/03/04 14:01:55;;;;;;;11.52;10.65;;;;;;;;;;5070557;28;20044;-55
2023/03/04 14:04:30;;;;;;;11.27;10.55;;;;;;;;;;5061612;28;20109;-55
2023/03/04 14:06:58;;;;;;;11.75;10.95;;;;;;;;;;5059208;28;20109;-55
2023/03/04 14:09:29;;;;;;;10.88;10.18;;;;;;;;;;5059769;28;20040;-52
2023/03/04 14:11:58;;;;;;;;;;;;;;;;;;5061453;28;20032;-54
2023/03/04 14:14:41;;;;;;;9.93;9.32;;;;;;;;;;5062320;28;19916;-56
2023/03/04 14:17:18;;;;;;;9.90;9.20;;;;;;;;;;5063462;28;20068;-55
2023/03/04 14:19:45;;;;;;;11.15;10.35;;;;;;;;;;5066280;28;20040;-55
2023/03/04 14:22:32;;;;;;;10.27;9.57;;;;;;;;;;5062496;28;20048;-56
2023/03/04 14:25:06;;;;;;;11.02;10.32;;;;;;;;;;5063822;28;20515;-56
2023/03/04 14:27:35;;;;;;;10.20;9.50;;;;;;;;;;5062892;28;20036;-57
2023/03/04 14:30:04;;;;;;;10.90;10.20;;;;;;;;;;5063687;28;20104;-56
2023/03/04 14:32:30;;;;;;;10.20;9.50;;;;;;;;;;5047171;28;20120;-58
2023/03/04 14:35:06;;;;;;;10.98;10.10;;;;;;;;;;5064616;28;20115;-57
2023/03/04 14:37:43;;;;;;;11.85;11.05;;;;;;;;;;5064211;28;20040;-57
2023/03/04 14:40:19;;;;;;;11.00;10.30;;;;;;;;;;5066272;28;20040;-57